METAR Data
IDs: Format: Raw Decoded Include TAF

Data at: 2036 UTC 19 May 2019

PACM 191956Z AUTO 02005KT 10SM OVC017 06/02 A2985 RMK AO2 SLP104 T00560022
PACM 191856Z AUTO 00000KT 10SM OVC019 06/02 A2985 RMK AO2 SLP104 T00560022
PACM 191756Z AUTO 32003KT 10SM OVC017 04/01 A2986 RMK AO2 SLP106 T00440011 10044 20028 53001
PACM 191656Z AUTO 02005KT 10SM OVC017 04/01 A2986 RMK AO2 SLP106 T00390011
PACM 191556Z AUTO 15004KT 10SM OVC015 03/01 A2985 RMK AO2 SLP103 T00330011
PACM 191456Z AUTO 19006KT 10SM OVC015 03/01 A2985 RMK AO2 SLP104 T00330006 51001
PACM 191356Z AUTO 00000KT 10SM OVC015 03/01 A2985 RMK AO2 SLP104 T00330006
PACM 191256Z AUTO 00000KT 10SM OVC015 03/01 A2985 RMK AO2 SLP104 T00330006
PACM 191156Z AUTO 14003KT 10SM OVC017 03/01 A2985 RMK AO2 SLP103 70001 T00330006 10044 20033 50001
PACM 191056Z AUTO 09003KT 10SM OVC017 03/01 A2985 RMK AO2 SLP104 T00330006
PACM 190956Z AUTO 13003KT 10SM OVC017 04/01 A2985 RMK AO2 SLP103 T00390011
PACM 190856Z AUTO 14003KT 10SM OVC015 03/01 A2985 RMK AO2 SLP103 T00330011 400560028 53007
PACM 190756Z AUTO 00000KT 10SM OVC015 04/01 A2984 RMK AO2 SLP100 T00390011
PACM 190656Z AUTO 19004KT 10SM OVC017 04/01 A2983 RMK AO2 SLP097 T00440011
PACM 190556Z AUTO 00000KT 10SM OVC017 04/01 A2982 RMK AO2 SLP095 T00440011 10056 20044 53004
PACM 190456Z AUTO 16004KT 10SM OVC017 04/01 A2982 RMK AO2 SLP094 T00440011
PACM 190356Z AUTO 18006KT 10SM OVC017 05/02 A2981 RMK AO2 SLP092 T00500017
PACM 190256Z AUTO VRB05KT 10SM OVC017 05/02 A2981 RMK AO2 SLP091 T00500017 50004
PACM 190156Z AUTO 15007KT 10SM OVC019 05/02 A2981 RMK AO2 SLP091 T00500017
PACM 190056Z AUTO 16008KT 10SM OVC019 05/02 A2981 RMK AO2 SLP089 T00500017
PACM 182356Z AUTO 14010KT 10SM OVC015 06/02 A2980 RMK AO2 SLP087 T00560022 10056 20039 51007
PACM 182336Z AUTO 14008KT 10SM OVC015 06/02 A2980 RMK AO2
PACM 182256Z AUTO 11008KT 10SM OVC013 05/02 A2980 RMK AO2 SLP085 T00500022
PACM 182156Z AUTO 14008KT 100V170 10SM OVC013 04/02 A2979 RMK AO2 SLP082 T00440017
PACM 182056Z AUTO 12007KT 10SM OVC011 04/02 A2978 RMK AO2 SLP080 T00440022 51018
PACM 181956Z AUTO 13008KT 10SM OVC013 04/02 A2977 RMK AO2 SLP076 T00440022
PACM 181856Z AUTO 14008KT 10SM OVC011 04/02 A2975 RMK AO2 SLP071 T00440022
PACM 181756Z AUTO 15016G22KT 4SM BR OVC007 04/02 A2973 RMK AO2 RAE07 CIG 004V010 SLP062 P0000 60001 T00390022 10039 20028 51011
PACM 181747Z AUTO 15017G21KT 5SM BR BKN007 OVC012 04/02 A2972 RMK AO2 RAE07 CIG 004V009 P0000
PACM 181722Z AUTO 15013KT 6SM BR BKN010 OVC016 03/02 A2972 RMK AO2 RAE07 CIG 007V012 P0000
PACM 181656Z AUTO 15010KT 3SM -RA BR BKN008 OVC018 03/02 A2972 RMK AO2 RAE1558B14E31B56UPB00E14B31E36 CIG 006V012 SLP060 P0000 T00330022
PACM 181648Z AUTO 15010KT 3SM BR BKN006 OVC018 03/02 A2972 RMK AO2 RAE1558B14E31UPB00E14B31E36 CIG 004V012 P0000
PACM 181638Z AUTO 14011KT 4SM BR SCT006 BKN018 OVC025 03/02 A2972 RMK AO2 RAE1558B14E31UPB00E14B31E36 P0000
PACM 181628Z AUTO 14010KT 4SM -RA BR SCT006 BKN013 OVC022 03/02 A2971 RMK AO2 RAE1558B14UPB00E14 P0000
PACM 181622Z AUTO 14010KT 2 1/2SM -RA BR SCT006 BKN015 OVC022 03/02 A2971 RMK AO2 RAE1558B14UPB00E14 P0000
PACM 181556Z AUTO 15012KT 4SM -RA BR SCT006 OVC024 03/02 A2971 RMK AO2 SLP056 P0000 T00280022
PACM 181544Z AUTO 15013KT 3SM -RA BR FEW004 SCT010 OVC024 03/02 A2971 RMK AO2 P0000
PACM 181534Z AUTO 14014KT 2 1/2SM -RA BR SCT004 BKN010 OVC024 03/02 A2970 RMK AO2 CIG 007V012 P0000
PACM 181521Z AUTO 14012KT 2SM -RA BR FEW004 BKN016 OVC026 03/02 A2970 RMK AO2 P0000
PACM 181506Z AUTO 14013KT 1 3/4SM -RA BR BKN004 OVC026 03/02 A2970 RMK AO2 P0000
PACM 181456Z AUTO 15011KT 2 1/2SM -RA BR BKN006 OVC026 03/02 A2970 RMK AO2 VIS 1 3/4V4 RAE02B24UPB02E24 CIG 003V008 SLP052 P0000 60001 T00280022 51009
PACM 181452Z AUTO 15012KT 2SM -RA BR OVC006 03/02 A2969 RMK AO2 RAE02B24UPB02E24 CIG 003V008 P0000
PACM 181428Z AUTO 13009KT 1 3/4SM -RA BR BKN004 OVC009 03/02 A2969 RMK AO2 RAE02B24UPB02E24 P0000
PACM 181421Z AUTO 13010KT 1 3/4SM UP BR OVC006 03/02 A2969 RMK AO2 RAE02UPB02 CIG 003V010 P0000
PACM 181410Z AUTO 13011KT 2SM UP BR BKN004 OVC008 03/02 A2969 RMK AO2 RAE02UPB02 P0000
PACM 181356Z AUTO 12008KT 2SM -RA BR FEW003 OVC008 03/02 A2969 RMK AO2 VIS 2V3 SLP049 P0000 T00280022
PACM 181347Z AUTO 13009KT 1 1/4SM -RA BR OVC006 03/03 A2969 RMK AO2 CIG 003V010 P0000
PACM 181336Z AUTO 13005KT 2 1/2SM -RA BR OVC005 03/03 A2969 RMK AO2 CIG 003V007 P0000
PACM 181256Z AUTO 08003KT 3SM -RA BR OVC003 03/03 A2968 RMK AO2 RAE26B52UPB26E52 CIG 003V007 SLP046 P0001 T00330028
PACM 181222Z AUTO 00000KT 3SM -RA BR OVC003 03/03 A2967 RMK AO2 P0000
PACM 181203Z AUTO 00000KT 2 1/2SM -RA BR OVC003 03/03 A2967 RMK AO2 P0000
PACM 181156Z AUTO 00000KT 3SM -RA BR OVC003 03/03 A2967 RMK AO2 RAE13B49UPB46E49 SLP042 P0000 60004 70007 T00330028 10050 20028 51011
PACM 181056Z AUTO 00000KT 3SM -RA BR OVC003 03/03 A2966 RMK AO2 SLP038 P0001 T00330033
PACM 180956Z AUTO 00000KT 2 1/2SM -RA BR OVC003 04/03 A2965 RMK AO2 SLP036 P0000 T00390033
PACM 180951Z AUTO 25003KT 2 1/2SM -RA BR OVC003 04/03 A2965 RMK AO2 P0000
PACM 180933Z AUTO 22004KT 5SM -RA BR OVC005 04/03 A2964 RMK AO2 P0000
PACM 180856Z AUTO 25004KT 10SM -RA OVC007 04/03 A2963 RMK AO2 SLP031 P0000 60003 T00390033 400670028 51014